map of MEI home
MEI - Airport
Location
City:  Meridian, Mississippi, United States
Name:Key Field
ICAO:KMEI
IATA:MEI
FAA LID:MEI

Details
Type:Airport (Part 139 Class I)
Use:Public/Civil
Latitude:3219'57"N (32.332611)
Longitude:8845'07"W (-88.751860)
Datum:WGS 1984
Elevation:298 ft (91 m)
Variation:1.95W (WMM2015 magnetic declination)
-0.10 annual change
Runways:2
Longest:10003 × 150 ft (3049 × 45.5 m), paved

Time
Time Zone:UTC-6 (DST-5)
Local Time:

Weather
METAR:KMEI 140858Z 21003KT 10SM CLR 01/00 A2994 RMK AO2 SLP139 T00110000 56002
TAF:KMEI 140520Z 1406/1506 19010KT P6SM SKC
FM141800 31004KT P6SM SKC

Related Locations
Nearby:
Farthest:MQZ: 11060 mi / 17799 km
Margaret River [Margaret River Airport], WA, AU

Find:

   beyond  
but within

Other Information
Maps:
Delays:
NOTAMs:
Links:
Sources:

  
flag of United States
flag of Mississippi
  

Airport Diagram

Airport diagram for MEI

Airport diagram PDF

Sectional Chart

Flight Planning
at skyvector.com

Satellite Image

Google Maps Satellite view

 

Copyright © 2004-2017 Karl L. Swartz. All rights reserved.
The Great Circle Mapper name and logo are trademarks of the Great Circle Mapper.
All other trademarks mentioned herein belong to their respective owners.
Please see credits for attibutions and further copyright information.

  Follow gcmap on Facebook Follow gcmap on Twitter Follow gcmap on Google+ GCmap on LinkedIn

hCard Microformat

Geo Microformat